createdAt,value
2022-11-12T00:01:21.997Z,9.20
2022-11-12T00:04:09.255Z,9.20
2022-11-12T00:06:54.702Z,9.10
2022-11-12T00:09:39.866Z,9.10
2022-11-12T00:12:24.963Z,9.00
2022-11-12T00:15:10.583Z,9.00
2022-11-12T00:17:56.329Z,9.00
2022-11-12T00:20:41.556Z,9.00
2022-11-12T00:23:26.864Z,8.90
2022-11-12T00:26:14.373Z,8.90
2022-11-12T00:28:59.576Z,8.90
2022-11-12T00:31:44.874Z,8.90
2022-11-12T00:34:30.043Z,8.90
2022-11-12T00:37:16.754Z,8.80
2022-11-12T00:40:02.056Z,8.80
2022-11-12T00:42:50.134Z,8.80
2022-11-12T00:45:37.877Z,8.80
2022-11-12T00:48:23.398Z,8.80
2022-11-12T00:51:09.303Z,8.70
2022-11-12T00:53:56.889Z,8.70
2022-11-12T00:56:42.115Z,8.70
2022-11-12T00:59:29.726Z,8.70
2022-11-12T01:02:15.022Z,8.70
2022-11-12T01:05:00.107Z,8.70
2022-11-12T01:07:50.497Z,8.60
2022-11-12T01:10:39.944Z,8.60
2022-11-12T01:13:25.219Z,8.60
2022-11-12T01:16:14.743Z,8.60
2022-11-12T01:19:00.798Z,8.50
2022-11-12T01:21:46.186Z,8.50
2022-11-12T01:24:31.223Z,8.50
2022-11-12T01:27:16.531Z,8.50
2022-11-12T01:30:01.674Z,8.50
2022-11-12T01:32:49.263Z,8.50
2022-11-12T01:35:34.513Z,8.50
2022-11-12T01:38:19.683Z,8.50
2022-11-12T01:41:07.678Z,8.50
2022-11-12T01:44:11.304Z,8.40
2022-11-12T01:46:59.646Z,8.50
2022-11-12T01:49:54.086Z,8.40
2022-11-12T01:52:46.368Z,8.40
2022-11-12T01:55:34.599Z,8.40
2022-11-12T01:58:22.198Z,8.40
2022-11-12T02:01:07.479Z,8.40
2022-11-12T02:03:52.600Z,8.40
2022-11-12T02:06:39.316Z,8.40
2022-11-12T02:09:25.184Z,8.40
2022-11-12T02:12:33.140Z,8.40
2022-11-12T02:15:18.248Z,8.40
2022-11-12T02:18:08.954Z,8.40
2022-11-12T02:20:57.502Z,8.40
2022-11-12T02:23:42.814Z,8.40
2022-11-12T02:26:30.013Z,8.40
2022-11-12T02:29:15.208Z,8.40
2022-11-12T02:32:00.439Z,8.40
2022-11-12T02:34:45.748Z,8.40
2022-11-12T02:37:31.400Z,8.50
2022-11-12T02:40:16.883Z,8.50
2022-11-12T02:43:02.329Z,8.40
2022-11-12T02:45:49.747Z,8.40
2022-11-12T02:48:34.940Z,8.40
2022-11-12T02:51:20.138Z,8.40
2022-11-12T02:54:05.390Z,8.40
2022-11-12T02:56:53.141Z,8.40
2022-11-12T02:59:38.314Z,8.40
2022-11-12T03:02:25.790Z,8.30
2022-11-12T03:05:14.837Z,8.30
2022-11-12T03:08:01.742Z,8.30
2022-11-12T03:10:46.841Z,8.30
2022-11-12T03:13:32.119Z,8.20
2022-11-12T03:16:17.656Z,8.20
2022-11-12T03:19:02.976Z,8.20
2022-11-12T03:21:48.500Z,8.20
2022-11-12T03:24:33.707Z,8.20
2022-11-12T03:27:19.273Z,8.20
2022-11-12T03:30:05.083Z,8.20
2022-11-12T03:32:50.479Z,8.20
2022-11-12T03:35:35.772Z,8.20
2022-11-12T03:38:23.975Z,8.20
2022-11-12T03:41:09.418Z,8.20
2022-11-12T03:43:57.036Z,8.10
2022-11-12T03:46:44.393Z,8.20
2022-11-12T03:49:29.660Z,8.20
2022-11-12T03:52:15.089Z,8.10
2022-11-12T03:55:00.197Z,8.10
2022-11-12T03:57:47.247Z,8.10
2022-11-12T04:00:32.701Z,8.10
2022-11-12T04:03:17.993Z,8.10
2022-11-12T04:06:21.948Z,8.00
2022-11-12T04:09:07.469Z,8.10
2022-11-12T04:11:52.788Z,8.00
2022-11-12T04:14:40.383Z,8.00
2022-11-12T04:17:44.467Z,8.00
2022-11-12T04:20:48.771Z,8.00
2022-11-12T04:23:34.368Z,7.90
2022-11-12T04:26:28.031Z,7.90
2022-11-12T04:29:37.580Z,7.90
2022-11-12T04:32:25.749Z,7.80
2022-11-12T04:35:10.934Z,7.80
2022-11-12T04:37:57.537Z,7.80
2022-11-12T04:41:04.372Z,7.80
2022-11-12T04:44:08.622Z,7.70
2022-11-12T04:46:53.919Z,7.70
2022-11-12T04:49:43.988Z,7.60
2022-11-12T04:52:29.775Z,7.60
2022-11-12T04:55:15.385Z,7.60
2022-11-12T04:58:01.162Z,7.50
2022-11-12T05:00:49.536Z,7.50
2022-11-12T05:03:34.837Z,7.50
2022-11-12T05:06:38.827Z,7.50
2022-11-12T05:09:25.732Z,7.50
2022-11-12T05:12:11.249Z,7.40
2022-11-12T05:14:56.649Z,7.40
2022-11-12T05:17:42.717Z,7.40
2022-11-12T05:20:28.085Z,7.40
2022-11-12T05:23:13.437Z,7.40
2022-11-12T05:26:03.586Z,7.30
2022-11-12T05:28:48.784Z,7.30
2022-11-12T05:31:33.905Z,7.30
2022-11-12T05:34:23.090Z,7.30
2022-11-12T05:37:09.603Z,7.30
2022-11-12T05:39:55.145Z,7.30
2022-11-12T05:42:40.421Z,7.30
2022-11-12T05:45:28.076Z,7.30
2022-11-12T05:48:20.182Z,7.30
2022-11-12T05:51:15.206Z,7.20
2022-11-12T05:54:00.886Z,7.20
2022-11-12T05:56:46.356Z,7.20
2022-11-12T05:59:31.658Z,7.20
2022-11-12T06:02:16.897Z,7.20
2022-11-12T06:05:02.574Z,7.20
2022-11-12T06:07:47.688Z,7.20
2022-11-12T06:10:35.473Z,7.20
2022-11-12T06:13:22.174Z,7.10
2022-11-12T06:16:07.684Z,7.10
2022-11-12T06:18:55.568Z,7.10
2022-11-12T06:21:40.689Z,7.10
2022-11-12T06:24:30.707Z,7.10
2022-11-12T06:27:19.128Z,7.10
2022-11-12T06:30:05.863Z,7.10
2022-11-12T06:32:51.906Z,7.10
2022-11-12T06:35:42.984Z,7.10
2022-11-12T06:38:32.712Z,7.10
2022-11-12T06:41:17.805Z,7.10
2022-11-12T06:44:04.697Z,7.10
2022-11-12T06:46:49.971Z,7.10
2022-11-12T06:49:35.258Z,7.10
2022-11-12T06:52:20.314Z,7.10
2022-11-12T06:55:11.047Z,7.10
2022-11-12T06:57:56.520Z,7.10
2022-11-12T07:00:41.730Z,7.10
2022-11-12T07:03:29.178Z,7.10
2022-11-12T07:06:15.568Z,7.10
2022-11-12T07:09:01.020Z,7.10
2022-11-12T07:11:46.195Z,7.10
2022-11-12T07:14:31.270Z,7.10
2022-11-12T07:17:16.551Z,7.10
2022-11-12T07:20:03.948Z,7.10
2022-11-12T07:22:49.550Z,7.10
2022-11-12T07:25:34.625Z,7.20
2022-11-12T07:28:19.683Z,7.20
2022-11-12T07:31:05.966Z,7.20
2022-11-12T07:33:53.756Z,7.20
2022-11-12T07:36:38.835Z,7.30
2022-11-12T07:39:23.998Z,7.30
2022-11-12T07:42:11.590Z,7.30
2022-11-12T07:44:56.785Z,7.30
2022-11-12T07:47:42.136Z,7.40
2022-11-12T07:50:29.636Z,7.40
2022-11-12T07:53:14.877Z,7.40
2022-11-12T07:56:00.863Z,7.50
2022-11-12T07:58:50.398Z,7.60
2022-11-12T08:01:37.170Z,7.60
2022-11-12T08:04:22.422Z,7.60
2022-11-12T08:07:07.566Z,7.70
2022-11-12T08:09:53.338Z,7.80
2022-11-12T08:12:38.777Z,7.80
2022-11-12T08:15:26.415Z,7.90
2022-11-12T08:18:11.863Z,7.90
2022-11-12T08:21:00.773Z,8.00
2022-11-12T08:23:46.465Z,8.00
2022-11-12T08:26:31.769Z,8.00
2022-11-12T08:29:19.528Z,8.10
2022-11-12T08:32:04.722Z,8.20
2022-11-12T08:34:49.809Z,8.20
2022-11-12T08:37:34.881Z,8.20
2022-11-12T08:40:20.040Z,8.30
2022-11-12T08:43:09.520Z,8.30
2022-11-12T08:45:54.715Z,8.40
2022-11-12T08:48:40.328Z,8.50
2022-11-12T08:51:28.079Z,8.50
2022-11-12T08:54:13.237Z,8.60
2022-11-12T08:56:58.621Z,8.60
2022-11-12T08:59:44.002Z,8.70
2022-11-12T09:02:29.249Z,8.70
2022-11-12T09:05:14.598Z,8.80
2022-11-12T09:08:06.103Z,8.80
2022-11-12T09:10:54.126Z,8.90
2022-11-12T09:13:39.371Z,8.90
2022-11-12T09:21:09.847Z,9.00
2022-11-12T09:23:55.683Z,9.10
2022-11-12T09:26:41.337Z,9.10
2022-11-12T09:29:26.865Z,9.20
2022-11-12T09:32:14.832Z,9.20
2022-11-12T09:35:00.265Z,9.30
2022-11-12T09:37:48.120Z,9.40
2022-11-12T09:40:53.628Z,9.40
2022-11-12T09:43:49.153Z,9.50
2022-11-12T09:46:48.251Z,9.60
2022-11-12T09:49:50.288Z,9.70
2022-11-12T09:52:38.755Z,9.70
2022-11-12T09:55:32.373Z,9.90
2022-11-12T09:58:18.827Z,10.00
2022-11-12T10:01:24.443Z,10.10
2022-11-12T10:04:28.456Z,10.30
2022-11-12T10:07:13.719Z,10.40
2022-11-12T10:10:17.563Z,10.50
2022-11-12T10:13:44.405Z,10.60
2022-11-12T10:17:15.878Z,10.70
2022-11-12T10:20:15.415Z,10.80
2022-11-12T10:23:09.755Z,10.90
2022-11-12T10:25:59.734Z,11.00
2022-11-12T10:29:02.796Z,11.00
2022-11-12T10:31:48.366Z,11.10
2022-11-12T10:34:35.881Z,11.10
2022-11-12T10:37:39.630Z,11.20
2022-11-12T10:40:31.651Z,11.30
2022-11-12T10:43:17.273Z,11.40
2022-11-12T10:50:36.624Z,11.60
2022-11-12T10:53:41.364Z,11.70
2022-11-12T10:56:32.489Z,11.70
2022-11-12T10:59:23.210Z,11.80
2022-11-12T11:02:18.513Z,11.80
2022-11-12T11:05:29.101Z,11.80
2022-11-12T11:08:14.734Z,11.90
2022-11-12T11:11:18.610Z,11.90
2022-11-12T11:14:22.495Z,11.90
2022-11-12T11:17:19.175Z,12.00
2022-11-12T11:20:06.276Z,12.00
2022-11-12T11:23:06.186Z,12.00
2022-11-12T11:25:54.772Z,12.10
2022-11-12T11:28:49.910Z,12.10
2022-11-12T11:31:48.738Z,12.10
2022-11-12T11:34:58.349Z,12.10
2022-11-12T11:38:15.980Z,12.10
2022-11-12T11:41:30.336Z,12.10
2022-11-12T11:44:47.974Z,12.00
2022-11-12T11:48:00.016Z,12.00
2022-11-12T11:51:22.175Z,11.90
2022-11-12T11:54:54.407Z,11.80
2022-11-12T11:58:03.113Z,11.80
2022-11-12T12:00:49.990Z,11.80
2022-11-12T12:04:00.232Z,11.80
2022-11-12T12:07:12.091Z,11.80
2022-11-12T12:10:09.290Z,11.80
2022-11-12T12:13:36.560Z,11.80
2022-11-12T12:16:40.104Z,11.80
2022-11-12T12:20:15.968Z,11.80
2022-11-12T12:23:23.756Z,11.80
2022-11-12T12:26:21.103Z,11.80
2022-11-12T12:29:21.265Z,11.80
2022-11-12T12:32:28.045Z,11.80
2022-11-12T12:35:38.008Z,11.80
2022-11-12T12:38:47.018Z,11.80
2022-11-12T12:41:52.443Z,11.80
2022-11-12T12:45:02.055Z,11.80
2022-11-12T12:47:48.588Z,11.80
2022-11-12T12:50:38.246Z,11.80
2022-11-12T12:53:29.818Z,11.80
2022-11-12T12:56:15.479Z,11.80
2022-11-12T12:59:03.944Z,11.90
2022-11-12T13:02:03.484Z,11.90
2022-11-12T13:04:58.466Z,11.90
2022-11-12T13:12:05.146Z,11.90
2022-11-12T13:14:53.265Z,11.90
2022-11-12T13:17:47.580Z,11.90
2022-11-12T13:20:36.610Z,12.00
2022-11-12T13:24:00.660Z,12.00
2022-11-12T13:26:50.346Z,12.00
2022-11-12T13:29:43.317Z,12.00
2022-11-12T13:32:48.559Z,12.00
2022-11-12T13:35:40.571Z,12.00
2022-11-12T13:38:28.897Z,12.00
2022-11-12T13:41:43.649Z,12.00
2022-11-12T13:44:32.050Z,12.00
2022-11-12T13:47:21.552Z,11.90
2022-11-12T13:50:18.737Z,11.90
2022-11-12T13:53:15.071Z,11.90
2022-11-12T13:56:05.443Z,11.90
2022-11-12T13:58:50.773Z,11.90
2022-11-12T14:01:36.460Z,11.90
2022-11-12T14:04:24.237Z,11.90
2022-11-12T14:07:34.627Z,11.90
2022-11-12T14:10:34.582Z,11.90
2022-11-12T14:13:37.982Z,11.90
2022-11-12T14:16:40.734Z,11.90
2022-11-12T14:20:11.525Z,11.90
2022-11-12T14:23:03.419Z,11.90
2022-11-12T14:25:56.559Z,11.80
2022-11-12T14:28:43.231Z,11.80
2022-11-12T14:31:28.849Z,11.80
2022-11-12T14:34:34.183Z,11.80
2022-11-12T14:37:43.463Z,11.80
2022-11-12T14:40:35.275Z,11.80
2022-11-12T14:43:39.679Z,11.80
2022-11-12T14:46:29.808Z,11.70
2022-11-12T14:49:27.341Z,11.60
2022-11-12T14:52:18.371Z,11.60
2022-11-12T14:55:08.968Z,11.60
2022-11-12T14:57:58.653Z,11.60
2022-11-12T15:00:47.444Z,11.60
2022-11-12T15:03:35.855Z,11.50
2022-11-12T15:06:29.841Z,11.50
2022-11-12T15:09:31.800Z,11.50
2022-11-12T15:12:37.702Z,11.50
2022-11-12T15:15:26.036Z,11.40
2022-11-12T15:18:21.480Z,11.40
2022-11-12T15:21:14.628Z,11.40
2022-11-12T15:24:26.841Z,11.40
2022-11-12T15:27:37.596Z,11.30
2022-11-12T15:30:25.204Z,11.30
2022-11-12T15:33:15.609Z,11.30
2022-11-12T15:36:01.979Z,11.20
2022-11-12T15:38:51.862Z,11.20
2022-11-12T15:41:37.279Z,11.20
2022-11-12T15:44:22.879Z,11.20
2022-11-12T15:47:15.367Z,11.10
2022-11-12T15:50:01.060Z,11.10
2022-11-12T15:52:48.965Z,11.00
2022-11-12T15:55:36.870Z,11.00
2022-11-12T15:58:32.062Z,11.00
2022-11-12T16:01:19.865Z,11.00
2022-11-12T16:04:05.391Z,10.90
2022-11-12T16:06:55.287Z,10.90
2022-11-12T16:09:41.035Z,10.90
2022-11-12T16:12:27.592Z,10.80
2022-11-12T16:15:27.954Z,10.80
2022-11-12T16:18:15.522Z,10.80
2022-11-12T16:21:07.373Z,10.80
2022-11-12T16:23:55.292Z,10.80
2022-11-12T16:26:41.111Z,10.80
2022-11-12T16:29:26.603Z,10.70
2022-11-12T16:32:15.329Z,10.70
2022-11-12T16:35:01.404Z,10.60
2022-11-12T16:37:48.601Z,10.60
2022-11-12T16:40:36.087Z,10.60
2022-11-12T16:43:22.643Z,10.60
2022-11-12T16:46:21.204Z,10.50
2022-11-12T16:49:12.349Z,10.50
2022-11-12T16:51:59.012Z,10.50
2022-11-12T16:54:45.060Z,10.50
2022-11-12T16:57:30.706Z,10.40
2022-11-12T17:00:19.411Z,10.40
2022-11-12T17:03:08.545Z,10.40
2022-11-12T17:05:56.520Z,10.30
2022-11-12T17:08:46.246Z,10.30
2022-11-12T17:11:32.828Z,10.30
2022-11-12T17:14:25.509Z,10.30
2022-11-12T17:17:16.456Z,10.30
2022-11-12T17:20:02.588Z,10.30
2022-11-12T17:22:47.908Z,10.30
2022-11-12T17:25:33.202Z,10.30
2022-11-12T17:28:18.607Z,10.20
2022-11-12T17:31:23.460Z,10.20
2022-11-12T17:34:09.969Z,10.20
2022-11-12T17:36:58.076Z,10.20
2022-11-12T17:39:44.656Z,10.20
2022-11-12T17:42:30.162Z,10.20
2022-11-12T17:45:16.772Z,10.10
2022-11-12T17:48:02.186Z,10.10
2022-11-12T17:50:47.927Z,10.10
2022-11-12T17:53:35.440Z,10.10
2022-11-12T17:56:25.644Z,10.00
2022-11-12T17:59:11.275Z,10.00
2022-11-12T18:01:56.612Z,9.90
2022-11-12T18:04:41.809Z,9.90
2022-11-12T18:07:27.217Z,9.90
2022-11-12T18:10:16.963Z,9.90
2022-11-12T18:13:04.775Z,9.90
2022-11-12T18:15:50.515Z,9.90
2022-11-12T18:18:35.754Z,9.80
2022-11-12T18:21:23.179Z,9.80
2022-11-12T18:24:13.335Z,9.80
2022-11-12T18:27:01.264Z,9.80
2022-11-12T18:29:48.897Z,9.80
2022-11-12T18:32:33.874Z,9.70
2022-11-12T18:35:18.983Z,9.70
2022-11-12T18:38:04.224Z,9.70
2022-11-12T18:40:51.788Z,9.70
2022-11-12T18:43:37.695Z,9.60
2022-11-12T18:46:23.696Z,9.70
2022-11-12T18:49:11.393Z,9.60
2022-11-12T18:51:56.696Z,9.60
2022-11-12T18:54:42.064Z,9.60
2022-11-12T18:57:28.463Z,9.60
2022-11-12T19:00:14.257Z,9.60
2022-11-12T19:02:59.321Z,9.60
2022-11-12T19:05:44.741Z,9.60
2022-11-12T19:08:30.525Z,9.60
2022-11-12T19:11:18.599Z,9.60
2022-11-12T19:14:06.374Z,9.60
2022-11-12T19:16:51.410Z,9.60
2022-11-12T19:19:36.535Z,9.60
2022-11-12T19:22:24.124Z,9.60
2022-11-12T19:25:11.888Z,9.50
2022-11-12T19:27:57.165Z,9.60
2022-11-12T19:30:47.203Z,9.60
2022-11-12T19:33:32.837Z,9.60
2022-11-12T19:36:19.536Z,9.60
2022-11-12T19:39:04.708Z,9.60
2022-11-12T19:41:49.869Z,9.60
2022-11-12T19:44:35.299Z,9.60
2022-11-12T19:47:23.167Z,9.60
2022-11-12T19:50:08.426Z,9.60
2022-11-12T19:52:54.672Z,9.60
2022-11-12T19:55:40.181Z,9.60
2022-11-12T19:58:28.519Z,9.70
2022-11-12T20:01:15.191Z,9.60
2022-11-12T20:04:02.820Z,9.60
2022-11-12T20:06:48.054Z,9.70
2022-11-12T20:09:33.726Z,9.70
2022-11-12T20:12:18.938Z,9.70
2022-11-12T20:15:04.777Z,9.70
2022-11-12T20:17:50.604Z,9.60
2022-11-12T20:20:36.038Z,9.70
2022-11-12T20:23:26.262Z,9.60
2022-11-12T20:26:14.452Z,9.60
2022-11-12T20:28:59.955Z,9.60
2022-11-12T20:31:45.798Z,9.60
2022-11-12T20:34:33.485Z,9.60
2022-11-12T20:37:18.802Z,9.60
2022-11-12T20:40:07.133Z,9.60
2022-11-12T20:42:55.577Z,9.50
2022-11-12T20:45:42.839Z,9.50
2022-11-12T20:48:28.863Z,9.50
2022-11-12T20:51:24.736Z,9.50
2022-11-12T20:54:10.882Z,9.40
2022-11-12T20:56:59.745Z,9.40
2022-11-12T20:59:45.027Z,9.40
2022-11-12T21:02:30.541Z,9.40
2022-11-12T21:05:16.233Z,9.30
2022-11-12T21:08:04.170Z,9.30
2022-11-12T21:10:50.491Z,9.30
2022-11-12T21:13:37.652Z,9.30
2022-11-12T21:16:25.489Z,9.30
2022-11-12T21:19:10.598Z,9.30
2022-11-12T21:21:56.236Z,9.30
2022-11-12T21:24:41.728Z,9.20
2022-11-12T21:27:27.353Z,9.30
2022-11-12T21:30:15.677Z,9.30
2022-11-12T21:33:01.361Z,9.30
2022-11-12T21:35:53.287Z,9.30
2022-11-12T21:38:38.636Z,9.20
2022-11-12T21:41:26.811Z,9.20
2022-11-12T21:44:12.026Z,9.20
2022-11-12T21:46:59.429Z,9.20
2022-11-12T21:49:44.726Z,9.20
2022-11-12T21:52:30.629Z,9.20
2022-11-12T21:55:15.972Z,9.20
2022-11-12T21:58:01.539Z,9.20
2022-11-12T22:00:49.288Z,9.10
2022-11-12T22:03:37.750Z,9.10
2022-11-12T22:06:26.651Z,9.10
2022-11-12T22:09:14.677Z,9.10
2022-11-12T22:12:00.049Z,9.10
2022-11-12T22:14:45.600Z,9.20
2022-11-12T22:17:35.468Z,9.20
2022-11-12T22:20:20.699Z,9.20
2022-11-12T22:23:57.040Z,9.20
2022-11-12T22:26:42.219Z,9.20
2022-11-12T22:29:27.643Z,9.10
2022-11-12T22:32:15.565Z,9.20
2022-11-12T22:35:03.176Z,9.20
2022-11-12T22:37:48.217Z,9.20
2022-11-12T22:40:33.475Z,9.20
2022-11-12T22:47:12.326Z,9.10
2022-11-12T22:49:57.564Z,9.10
2022-11-12T22:52:48.823Z,9.20
2022-11-12T22:55:35.181Z,9.20
2022-11-12T22:58:20.552Z,9.20
2022-11-12T23:01:07.130Z,9.20
2022-11-12T23:03:54.615Z,9.20
2022-11-12T23:06:39.918Z,9.20
2022-11-12T23:09:24.945Z,9.30
2022-11-12T23:12:10.192Z,9.30
2022-11-12T23:14:55.575Z,9.30
2022-11-12T23:17:40.608Z,9.30
2022-11-12T23:20:25.829Z,9.30
2022-11-12T23:23:11.091Z,9.40
2022-11-12T23:26:01.251Z,9.40
2022-11-12T23:28:46.396Z,9.40
2022-11-12T23:31:32.111Z,9.40
2022-11-12T23:38:22.233Z,9.50
2022-11-12T23:41:07.702Z,9.50
2022-11-12T23:43:53.700Z,9.50
2022-11-12T23:46:38.800Z,9.50
2022-11-12T23:49:26.499Z,9.50
2022-11-12T23:52:14.154Z,9.50
2022-11-12T23:54:59.585Z,9.60
2022-11-12T23:57:45.161Z,9.60
